sensor_id;sensor_type;location;lat;lon;timestamp;pressure;altitude;pressure_sealevel;temperature;humidity
49377;BME280;35253;34.688;33.040;2024-02-15T00:00:52;100466.19;;;15.24;100.00
49377;BME280;35253;34.688;33.040;2024-02-15T00:03:19;100459.09;;;15.23;100.00
49377;BME280;35253;34.688;33.040;2024-02-15T00:05:45;100450.59;;;15.07;100.00
49377;BME280;35253;34.688;33.040;2024-02-15T00:08:11;100453.66;;;15.02;100.00
49377;BME280;35253;34.688;33.040;2024-02-15T00:10:37;100460.75;;;15.03;100.00
49377;BME280;35253;34.688;33.040;2024-02-15T00:13:03;100452.69;;;15.03;100.00
49377;BME280;35253;34.688;33.040;2024-02-15T00:15:31;100452.31;;;15.08;100.00
49377;BME280;35253;34.688;33.040;2024-02-15T00:17:57;100447.44;;;15.13;100.00
49377;BME280;35253;34.688;33.040;2024-02-15T00:20:22;100457.16;;;15.14;100.00
49377;BME280;35253;34.688;33.040;2024-02-15T00:22:48;100466.00;;;15.05;100.00
49377;BME280;35253;34.688;33.040;2024-02-15T00:25:15;100455.97;;;15.07;100.00
49377;BME280;35253;34.688;33.040;2024-02-15T00:27:41;100458.88;;;15.15;100.00
49377;BME280;35253;34.688;33.040;2024-02-15T00:30:07;100460.59;;;15.16;100.00
49377;BME280;35253;34.688;33.040;2024-02-15T00:32:33;100454.25;;;15.17;100.00
49377;BME280;35253;34.688;33.040;2024-02-15T00:34:59;100455.34;;;15.25;100.00
49377;BME280;35253;34.688;33.040;2024-02-15T00:37:25;100455.94;;;15.29;100.00
49377;BME280;35253;34.688;33.040;2024-02-15T00:39:51;100455.06;;;15.28;100.00
49377;BME280;35253;34.688;33.040;2024-02-15T00:42:16;100450.81;;;15.26;100.00
49377;BME280;35253;34.688;33.040;2024-02-15T00:44:42;100436.69;;;15.02;100.00
49377;BME280;35253;34.688;33.040;2024-02-15T00:47:09;100435.25;;;15.09;100.00
49377;BME280;35253;34.688;33.040;2024-02-15T00:49:35;100434.66;;;14.94;100.00
49377;BME280;35253;34.688;33.040;2024-02-15T00:52:01;100430.13;;;14.95;100.00
49377;BME280;35253;34.688;33.040;2024-02-15T00:54:27;100427.19;;;15.09;100.00
49377;BME280;35253;34.688;33.040;2024-02-15T00:56:52;100436.34;;;14.95;100.00
49377;BME280;35253;34.688;33.040;2024-02-15T00:59:18;100434.97;;;15.01;100.00
49377;BME280;35253;34.688;33.040;2024-02-15T01:01:44;100435.25;;;14.98;100.00
49377;BME280;35253;34.688;33.040;2024-02-15T01:04:10;100435.50;;;14.95;100.00
49377;BME280;35253;34.688;33.040;2024-02-15T01:06:36;100440.75;;;14.96;100.00
49377;BME280;35253;34.688;33.040;2024-02-15T01:09:02;100437.19;;;15.07;100.00
49377;BME280;35253;34.688;33.040;2024-02-15T01:11:29;100434.22;;;15.10;100.00
49377;BME280;35253;34.688;33.040;2024-02-15T01:13:58;100443.53;;;15.06;100.00
49377;BME280;35253;34.688;33.040;2024-02-15T01:16:24;100440.84;;;15.17;100.00
49377;BME280;35253;34.688;33.040;2024-02-15T01:18:52;100438.63;;;15.22;100.00
49377;BME280;35253;34.688;33.040;2024-02-15T01:21:18;100435.94;;;15.22;100.00
49377;BME280;35253;34.688;33.040;2024-02-15T01:23:44;100438.84;;;15.19;100.00
49377;BME280;35253;34.688;33.040;2024-02-15T01:26:12;100438.91;;;15.08;100.00
49377;BME280;35253;34.688;33.040;2024-02-15T01:28:38;100441.94;;;14.92;100.00
49377;BME280;35253;34.688;33.040;2024-02-15T01:31:03;100434.75;;;14.93;100.00
49377;BME280;35253;34.688;33.040;2024-02-15T01:33:29;100441.47;;;14.98;100.00
49377;BME280;35253;34.688;33.040;2024-02-15T01:35:54;100442.06;;;15.02;100.00
49377;BME280;35253;34.688;33.040;2024-02-15T01:38:21;100453.88;;;15.10;100.00
49377;BME280;35253;34.688;33.040;2024-02-15T01:40:47;100448.88;;;15.17;100.00
49377;BME280;35253;34.688;33.040;2024-02-15T01:43:14;100454.63;;;15.12;100.00
49377;BME280;35253;34.688;33.040;2024-02-15T01:45:40;100460.63;;;14.94;100.00
49377;BME280;35253;34.688;33.040;2024-02-15T01:48:06;100460.16;;;15.00;100.00
49377;BME280;35253;34.688;33.040;2024-02-15T01:50:32;100462.94;;;14.98;100.00
49377;BME280;35253;34.688;33.040;2024-02-15T01:53:01;100459.28;;;14.99;100.00
49377;BME280;35253;34.688;33.040;2024-02-15T01:55:30;100461.38;;;14.96;100.00
49377;BME280;35253;34.688;33.040;2024-02-15T01:57:55;100471.84;;;14.87;100.00
49377;BME280;35253;34.688;33.040;2024-02-15T02:00:21;100468.44;;;14.85;100.00
49377;BME280;35253;34.688;33.040;2024-02-15T02:02:47;100466.47;;;14.87;100.00
49377;BME280;35253;34.688;33.040;2024-02-15T02:05:14;100466.47;;;14.87;100.00
49377;BME280;35253;34.688;33.040;2024-02-15T02:07:39;100470.16;;;14.86;100.00
49377;BME280;35253;34.688;33.040;2024-02-15T02:10:07;100470.38;;;14.83;100.00
49377;BME280;35253;34.688;33.040;2024-02-15T02:12:37;100469.91;;;14.89;100.00
49377;BME280;35253;34.688;33.040;2024-02-15T02:15:06;100474.06;;;14.82;100.00
49377;BME280;35253;34.688;33.040;2024-02-15T02:17:32;100471.13;;;14.74;100.00
49377;BME280;35253;34.688;33.040;2024-02-15T02:19:59;100468.31;;;14.76;100.00
49377;BME280;35253;34.688;33.040;2024-02-15T02:22:24;100467.34;;;14.88;100.00
49377;BME280;35253;34.688;33.040;2024-02-15T02:25:05;100466.13;;;14.81;100.00
49377;BME280;35253;34.688;33.040;2024-02-15T02:27:35;100476.38;;;14.87;100.00
49377;BME280;35253;34.688;33.040;2024-02-15T02:30:04;100475.66;;;14.74;100.00
49377;BME280;35253;34.688;33.040;2024-02-15T02:32:34;100474.06;;;14.82;100.00
49377;BME280;35253;34.688;33.040;2024-02-15T02:35:01;100468.31;;;14.76;100.00
49377;BME280;35253;34.688;33.040;2024-02-15T02:37:28;100480.41;;;14.81;100.00
49377;BME280;35253;34.688;33.040;2024-02-15T02:39:54;100488.47;;;14.81;100.00
49377;BME280;35253;34.688;33.040;2024-02-15T02:42:20;100482.59;;;14.87;100.00
49377;BME280;35253;34.688;33.040;2024-02-15T02:44:46;100484.56;;;14.85;100.00
49377;BME280;35253;34.688;33.040;2024-02-15T02:47:12;100479.91;;;14.76;100.00
49377;BME280;35253;34.688;33.040;2024-02-15T02:49:37;100488.72;;;14.78;100.00
49377;BME280;35253;34.688;33.040;2024-02-15T02:52:04;100492.34;;;14.88;100.00
49377;BME280;35253;34.688;33.040;2024-02-15T02:54:29;100486.00;;;14.89;100.00
49377;BME280;35253;34.688;33.040;2024-02-15T02:56:55;100478.06;;;14.88;100.00
49377;BME280;35253;34.688;33.040;2024-02-15T02:59:21;100479.19;;;14.85;100.00
49377;BME280;35253;34.688;33.040;2024-02-15T03:01:47;100466.88;;;14.83;100.00
49377;BME280;35253;34.688;33.040;2024-02-15T03:04:15;100477.22;;;14.99;100.00
49377;BME280;35253;34.688;33.040;2024-02-15T03:06:45;100465.03;;;14.95;100.00
49377;BME280;35253;34.688;33.040;2024-02-15T03:09:11;100460.25;;;14.98;100.00
49377;BME280;35253;34.688;33.040;2024-02-15T03:11:40;100467.47;;;15.09;100.00
49377;BME280;35253;34.688;33.040;2024-02-15T03:14:05;100472.09;;;15.07;100.00
49377;BME280;35253;34.688;33.040;2024-02-15T03:16:32;100473.91;;;15.06;100.00
49377;BME280;35253;34.688;33.040;2024-02-15T03:18:57;100476.75;;;15.05;100.00
49377;BME280;35253;34.688;33.040;2024-02-15T03:21:23;100480.50;;;15.02;100.00
49377;BME280;35253;34.688;33.040;2024-02-15T03:23:48;100486.13;;;14.99;100.00
49377;BME280;35253;34.688;33.040;2024-02-15T03:26:14;100486.75;;;15.03;100.00
49377;BME280;35253;34.688;33.040;2024-02-15T03:28:40;100488.56;;;15.02;100.00
49377;BME280;35253;34.688;33.040;2024-02-15T03:31:05;100494.31;;;14.98;100.00
49377;BME280;35253;34.688;33.040;2024-02-15T03:33:31;100497.72;;;15.00;100.00
49377;BME280;35253;34.688;33.040;2024-02-15T03:36:00;100499.06;;;14.94;100.00
49377;BME280;35253;34.688;33.040;2024-02-15T03:38:27;100499.41;;;15.01;100.00
49377;BME280;35253;34.688;33.040;2024-02-15T03:40:55;100506.75;;;14.99;100.00
49377;BME280;35253;34.688;33.040;2024-02-15T03:43:21;100507.22;;;14.93;100.00
49377;BME280;35253;34.688;33.040;2024-02-15T03:45:49;100496.28;;;14.96;100.00
49377;BME280;35253;34.688;33.040;2024-02-15T03:48:14;100505.56;;;14.92;100.00
49377;BME280;35253;34.688;33.040;2024-02-15T03:50:41;100550.97;;;14.14;100.00
49377;BME280;35253;34.688;33.040;2024-02-15T03:53:09;100549.19;;;13.90;100.00
49377;BME280;35253;34.688;33.040;2024-02-15T03:55:36;100566.44;;;14.10;100.00
49377;BME280;35253;34.688;33.040;2024-02-15T03:58:02;100573.50;;;14.11;100.00
49377;BME280;35253;34.688;33.040;2024-02-15T04:00:27;100573.69;;;14.32;100.00
49377;BME280;35253;34.688;33.040;2024-02-15T04:02:53;100584.16;;;14.24;100.00
49377;BME280;35253;34.688;33.040;2024-02-15T04:05:20;100589.78;;;14.21;100.00
49377;BME280;35253;34.688;33.040;2024-02-15T04:07:47;100588.66;;;14.23;100.00
49377;BME280;35253;34.688;33.040;2024-02-15T04:10:14;100585.84;;;14.37;100.00
49377;BME280;35253;34.688;33.040;2024-02-15T04:12:43;100600.09;;;14.38;100.00
49377;BME280;35253;34.688;33.040;2024-02-15T04:15:09;100596.28;;;14.64;100.00
49377;BME280;35253;34.688;33.040;2024-02-15T04:17:38;100607.16;;;14.85;100.00
49377;BME280;35253;34.688;33.040;2024-02-15T04:20:04;100613.28;;;14.98;100.00
49377;BME280;35253;34.688;33.040;2024-02-15T04:22:32;100613.69;;;15.05;100.00
49377;BME280;35253;34.688;33.040;2024-02-15T04:25:05;100621.22;;;15.11;100.00
49377;BME280;35253;34.688;33.040;2024-02-15T04:27:32;100618.78;;;15.19;100.00
49377;BME280;35253;34.688;33.040;2024-02-15T04:29:58;100611.25;;;15.13;100.00
49377;BME280;35253;34.688;33.040;2024-02-15T04:32:24;100616.09;;;15.19;100.00
49377;BME280;35253;34.688;33.040;2024-02-15T04:34:50;100621.47;;;15.19;100.00
49377;BME280;35253;34.688;33.040;2024-02-15T04:37:16;100614.41;;;15.18;100.00
49377;BME280;35253;34.688;33.040;2024-02-15T04:39:43;100625.38;;;15.15;100.00
49377;BME280;35253;34.688;33.040;2024-02-15T04:42:09;100621.38;;;15.09;100.00
49377;BME280;35253;34.688;33.040;2024-02-15T04:44:39;100627.09;;;15.16;100.00
49377;BME280;35253;34.688;33.040;2024-02-15T04:47:05;100634.91;;;15.19;100.00
49377;BME280;35253;34.688;33.040;2024-02-15T04:49:32;100632.47;;;15.16;100.00
49377;BME280;35253;34.688;33.040;2024-02-15T04:51:58;100641.75;;;15.12;100.00
49377;BME280;35253;34.688;33.040;2024-02-15T04:54:24;100632.53;;;14.81;100.00
49377;BME280;35253;34.688;33.040;2024-02-15T04:56:49;100638.00;;;14.68;100.00
49377;BME280;35253;34.688;33.040;2024-02-15T04:59:20;100628.97;;;14.69;100.00
49377;BME280;35253;34.688;33.040;2024-02-15T05:01:47;100626.00;;;14.61;100.00
49377;BME280;35253;34.688;33.040;2024-02-15T05:04:12;100629.00;;;14.46;100.00
49377;BME280;35253;34.688;33.040;2024-02-15T05:06:39;100637.34;;;14.30;100.00
49377;BME280;35253;34.688;33.040;2024-02-15T05:09:05;100637.81;;;14.35;100.00
49377;BME280;35253;34.688;33.040;2024-02-15T05:11:39;100637.19;;;14.20;100.00
49377;BME280;35253;34.688;33.040;2024-02-15T05:14:13;100635.91;;;14.13;100.00
49377;BME280;35253;34.688;33.040;2024-02-15T05:16:47;100630.78;;;14.10;100.00
49377;BME280;35253;34.688;33.040;2024-02-15T05:19:15;100626.50;;;14.08;100.00
49377;BME280;35253;34.688;33.040;2024-02-15T05:21:41;100628.16;;;13.97;100.00
49377;BME280;35253;34.688;33.040;2024-02-15T05:24:12;100628.91;;;13.99;100.00
49377;BME280;35253;34.688;33.040;2024-02-15T05:26:39;100626.44;;;13.96;100.00
49377;BME280;35253;34.688;33.040;2024-02-15T05:29:05;100624.00;;;13.93;100.00
49377;BME280;35253;34.688;33.040;2024-02-15T05:31:31;100624.00;;;13.93;100.00
49377;BME280;35253;34.688;33.040;2024-02-15T05:33:56;100619.00;;;14.00;100.00
49377;BME280;35253;34.688;33.040;2024-02-15T05:36:23;100623.84;;;14.08;100.00
49377;BME280;35253;34.688;33.040;2024-02-15T05:38:54;100621.88;;;14.10;100.00
49377;BME280;35253;34.688;33.040;2024-02-15T05:41:20;100615.78;;;14.08;100.00
49377;BME280;35253;34.688;33.040;2024-02-15T05:43:46;100619.66;;;14.04;100.00
49377;BME280;35253;34.688;33.040;2024-02-15T05:46:18;100620.88;;;13.99;100.00
49377;BME280;35253;34.688;33.040;2024-02-15T05:48:44;100619.81;;;13.89;100.00
49377;BME280;35253;34.688;33.040;2024-02-15T05:51:09;100626.28;;;14.11;100.00
49377;BME280;35253;34.688;33.040;2024-02-15T05:53:36;100623.16;;;14.17;100.00
49377;BME280;35253;34.688;33.040;2024-02-15T05:56:02;100621.47;;;14.27;100.00
49377;BME280;35253;34.688;33.040;2024-02-15T05:58:36;100612.41;;;14.40;100.00
49377;BME280;35253;34.688;33.040;2024-02-15T06:01:03;100619.66;;;14.51;100.00
49377;BME280;35253;34.688;33.040;2024-02-15T06:03:34;100620.28;;;14.66;100.00
49377;BME280;35253;34.688;33.040;2024-02-15T06:06:03;100625.25;;;14.83;100.00
49377;BME280;35253;34.688;33.040;2024-02-15T06:08:35;100625.25;;;14.83;100.00
49377;BME280;35253;34.688;33.040;2024-02-15T06:11:02;100614.84;;;14.89;100.00
49377;BME280;35253;34.688;33.040;2024-02-15T06:13:28;100619.75;;;14.96;100.00
49377;BME280;35253;34.688;33.040;2024-02-15T06:15:54;100616.38;;;15.05;100.00
49377;BME280;35253;34.688;33.040;2024-02-15T06:18:20;100615.34;;;15.06;100.00
49377;BME280;35253;34.688;33.040;2024-02-15T06:20:56;100607.94;;;15.20;100.00
49377;BME280;35253;34.688;33.040;2024-02-15T06:23:23;100600.13;;;15.40;100.00
49377;BME280;35253;34.688;33.040;2024-02-15T06:25:51;100607.34;;;15.39;100.00
49377;BME280;35253;34.688;33.040;2024-02-15T06:28:20;100592.06;;;15.40;100.00
49377;BME280;35253;34.688;33.040;2024-02-15T06:31:08;100599.50;;;15.47;100.00
49377;BME280;35253;34.688;33.040;2024-02-15T06:33:52;100599.28;;;15.39;100.00
49377;BME280;35253;34.688;33.040;2024-02-15T06:36:48;100597.19;;;15.43;100.00
49377;BME280;35253;34.688;33.040;2024-02-15T06:39:32;100606.38;;;15.51;100.00
49377;BME280;35253;34.688;33.040;2024-02-15T06:42:16;100610.63;;;15.65;100.00
49377;BME280;35253;34.688;33.040;2024-02-15T06:44:47;100615.50;;;15.71;100.00
49377;BME280;35253;34.688;33.040;2024-02-15T06:47:14;100610.69;;;15.86;100.00
49377;BME280;35253;34.688;33.040;2024-02-15T06:49:43;100610.22;;;15.92;100.00
49377;BME280;35253;34.688;33.040;2024-02-15T06:52:11;100610.22;;;15.92;100.00
49377;BME280;35253;34.688;33.040;2024-02-15T06:54:38;100615.06;;;15.98;100.00
49377;BME280;35253;34.688;33.040;2024-02-15T06:57:04;100609.66;;;16.09;100.00
49377;BME280;35253;34.688;33.040;2024-02-15T06:59:31;100609.28;;;16.13;100.00
49377;BME280;35253;34.688;33.040;2024-02-15T07:02:00;100619.88;;;16.26;100.00
49377;BME280;35253;34.688;33.040;2024-02-15T07:04:26;100622.78;;;16.34;100.00
49377;BME280;35253;34.688;33.040;2024-02-15T07:06:52;100624.69;;;16.43;100.00
49377;BME280;35253;34.688;33.040;2024-02-15T07:09:20;100624.03;;;16.51;100.00
49377;BME280;35253;34.688;33.040;2024-02-15T07:11:46;100622.19;;;16.62;100.00
49377;BME280;35253;34.688;33.040;2024-02-15T07:14:13;100622.50;;;16.69;100.00
49377;BME280;35253;34.688;33.040;2024-02-15T07:16:39;100619.16;;;16.77;100.00
49377;BME280;35253;34.688;33.040;2024-02-15T07:19:05;100618.13;;;16.89;100.00
49377;BME280;35253;34.688;33.040;2024-02-15T07:21:32;100621.97;;;16.96;100.00
49377;BME280;35253;34.688;33.040;2024-02-15T07:23:58;100620.72;;;17.00;100.00
49377;BME280;35253;34.688;33.040;2024-02-15T07:26:24;100632.94;;;17.04;100.00
49377;BME280;35253;34.688;33.040;2024-02-15T07:28:54;100635.56;;;17.15;100.00
49377;BME280;35253;34.688;33.040;2024-02-15T07:31:20;100626.22;;;17.19;100.00
49377;BME280;35253;34.688;33.040;2024-02-15T07:33:50;100638.97;;;17.17;100.00
49377;BME280;35253;34.688;33.040;2024-02-15T07:36:23;100633.00;;;17.13;100.00
49377;BME280;35253;34.688;33.040;2024-02-15T07:38:50;100642.41;;;17.19;100.00
49377;BME280;35253;34.688;33.040;2024-02-15T07:41:20;100637.66;;;17.32;100.00
49377;BME280;35253;34.688;33.040;2024-02-15T07:43:48;100642.31;;;17.30;100.00
49377;BME280;35253;34.688;33.040;2024-02-15T07:46:14;100642.75;;;17.35;100.00
49377;BME280;35253;34.688;33.040;2024-02-15T07:48:42;100645.16;;;17.08;100.00
49377;BME280;35253;34.688;33.040;2024-02-15T07:51:12;100655.50;;;17.33;100.00
49377;BME280;35253;34.688;33.040;2024-02-15T07:53:39;100655.31;;;17.46;100.00
49377;BME280;35253;34.688;33.040;2024-02-15T07:56:05;100655.53;;;17.43;100.00
49377;BME280;35253;34.688;33.040;2024-02-15T07:58:31;100651.53;;;17.58;100.00
49377;BME280;35253;34.688;33.040;2024-02-15T08:00:57;100650.56;;;17.69;100.00
49377;BME280;35253;34.688;33.040;2024-02-15T08:03:25;100648.31;;;17.74;100.00
49377;BME280;35253;34.688;33.040;2024-02-15T08:05:52;100651.47;;;17.79;100.00
49377;BME280;35253;34.688;33.040;2024-02-15T08:08:17;100645.09;;;17.80;100.00
49377;BME280;35253;34.688;33.040;2024-02-15T08:10:43;100645.91;;;17.71;100.00
49377;BME280;35253;34.688;33.040;2024-02-15T08:13:10;100641.41;;;17.81;100.00
49377;BME280;35253;34.688;33.040;2024-02-15T08:15:36;100650.47;;;17.80;100.00
49377;BME280;35253;34.688;33.040;2024-02-15T08:18:01;100650.19;;;17.83;100.00
49377;BME280;35253;34.688;33.040;2024-02-15T08:20:30;100648.34;;;17.83;100.00
49377;BME280;35253;34.688;33.040;2024-02-15T08:22:56;100642.72;;;17.96;100.00
49377;BME280;35253;34.688;33.040;2024-02-15T08:25:24;100642.69;;;17.86;100.00
49377;BME280;35253;34.688;33.040;2024-02-15T08:27:50;100644.69;;;17.84;100.00
49377;BME280;35253;34.688;33.040;2024-02-15T08:30:17;100634.59;;;17.86;100.00
49377;BME280;35253;34.688;33.040;2024-02-15T08:32:43;100642.72;;;17.96;100.00
49377;BME280;35253;34.688;33.040;2024-02-15T08:35:13;100638.19;;;18.06;100.00
49377;BME280;35253;34.688;33.040;2024-02-15T08:37:40;100625.22;;;17.81;100.00
49377;BME280;35253;34.688;33.040;2024-02-15T08:40:08;100611.19;;;17.96;100.00
49377;BME280;35253;34.688;33.040;2024-02-15T08:42:40;100610.78;;;18.01;100.00
49377;BME280;35253;34.688;33.040;2024-02-15T08:45:07;100610.91;;;18.09;100.00
49377;BME280;35253;34.688;33.040;2024-02-15T08:47:36;100608.63;;;17.95;100.00
49377;BME280;35253;34.688;33.040;2024-02-15T08:50:03;100604.34;;;17.83;100.00
49377;BME280;35253;34.688;33.040;2024-02-15T08:52:31;100606.50;;;18.08;100.00
49377;BME280;35253;34.688;33.040;2024-02-15T08:54:57;100613.63;;;18.09;100.00
49377;BME280;35253;34.688;33.040;2024-02-15T08:57:24;100613.59;;;17.99;100.00
49377;BME280;35253;34.688;33.040;2024-02-15T08:59:51;100620.28;;;18.05;100.00
49377;BME280;35253;34.688;33.040;2024-02-15T09:02:20;100618.00;;;18.00;100.00
49377;BME280;35253;34.688;33.040;2024-02-15T09:04:47;100623.53;;;17.99;100.00
49377;BME280;35253;34.688;33.040;2024-02-15T09:07:12;100614.31;;;17.92;100.00
49377;BME280;35253;34.688;33.040;2024-02-15T09:09:38;100618.25;;;17.78;100.00
49377;BME280;35253;34.688;33.040;2024-02-15T09:12:04;100615.09;;;17.64;100.00
49377;BME280;35253;34.688;33.040;2024-02-15T09:14:33;100610.94;;;17.60;100.00
49377;BME280;35253;34.688;33.040;2024-02-15T09:17:11;100609.34;;;17.57;100.00
49377;BME280;35253;34.688;33.040;2024-02-15T09:19:37;100607.66;;;17.56;100.00
49377;BME280;35253;34.688;33.040;2024-02-15T09:22:02;100607.44;;;17.38;100.00
49377;BME280;35253;34.688;33.040;2024-02-15T09:24:32;100607.41;;;17.29;100.00
49377;BME280;35253;34.688;33.040;2024-02-15T09:27:02;100602.72;;;17.31;100.00
49377;BME280;35253;34.688;33.040;2024-02-15T09:29:28;100604.13;;;17.25;100.00
49377;BME280;35253;34.688;33.040;2024-02-15T09:32:00;100598.72;;;17.25;100.00
49377;BME280;35253;34.688;33.040;2024-02-15T09:34:28;100600.44;;;17.26;100.00
49377;BME280;35253;34.688;33.040;2024-02-15T09:36:54;100591.31;;;17.18;100.00
49377;BME280;35253;34.688;33.040;2024-02-15T09:39:21;100597.84;;;17.15;100.00
49377;BME280;35253;34.688;33.040;2024-02-15T09:41:46;100591.50;;;16.95;100.00
49377;BME280;35253;34.688;33.040;2024-02-15T09:44:16;100600.56;;;16.21;100.00
49377;BME280;35253;34.688;33.040;2024-02-15T09:46:45;100597.19;;;16.19;100.00
49377;BME280;35253;34.688;33.040;2024-02-15T09:49:12;100593.91;;;16.36;100.00
49377;BME280;35253;34.688;33.040;2024-02-15T09:51:40;100591.06;;;16.38;100.00
49377;BME280;35253;34.688;33.040;2024-02-15T09:54:05;100600.00;;;16.38;100.00
49377;BME280;35253;34.688;33.040;2024-02-15T09:56:34;100600.75;;;16.40;100.00
49377;BME280;35253;34.688;33.040;2024-02-15T09:59:01;100596.22;;;16.41;100.00
49377;BME280;35253;34.688;33.040;2024-02-15T10:01:30;100595.66;;;16.26;100.00
49377;BME280;35253;34.688;33.040;2024-02-15T10:03:58;100592.38;;;16.22;100.00
49377;BME280;35253;34.688;33.040;2024-02-15T10:06:27;100584.44;;;16.21;100.00
49377;BME280;35253;34.688;33.040;2024-02-15T10:08:52;100583.66;;;16.30;100.00
49377;BME280;35253;34.688;33.040;2024-02-15T10:11:18;100591.06;;;16.38;100.00
49377;BME280;35253;34.688;33.040;2024-02-15T10:13:45;100588.06;;;16.31;100.00
49377;BME280;35253;34.688;33.040;2024-02-15T10:16:16;100590.50;;;16.34;100.00
49377;BME280;35253;34.688;33.040;2024-02-15T10:18:44;100593.19;;;16.34;100.00
49377;BME280;35253;34.688;33.040;2024-02-15T10:21:10;100592.06;;;16.37;100.00
49377;BME280;35253;34.688;33.040;2024-02-15T10:23:36;100597.88;;;16.21;100.00
49377;BME280;35253;34.688;33.040;2024-02-15T10:26:19;100591.00;;;16.28;100.00
49377;BME280;35253;34.688;33.040;2024-02-15T10:28:45;100600.78;;;16.29;100.00
49377;BME280;35253;34.688;33.040;2024-02-15T10:31:12;100593.09;;;16.24;100.00
49377;BME280;35253;34.688;33.040;2024-02-15T10:33:38;100601.06;;;16.15;100.00
49377;BME280;35253;34.688;33.040;2024-02-15T10:36:11;100603.91;;;16.13;100.00
49377;BME280;35253;34.688;33.040;2024-02-15T10:38:37;100601.25;;;16.02;100.00
49377;BME280;35253;34.688;33.040;2024-02-15T10:41:04;100604.31;;;15.98;100.00
49377;BME280;35253;34.688;33.040;2024-02-15T10:43:30;100614.84;;;16.01;100.00
49377;BME280;35253;34.688;33.040;2024-02-15T10:45:58;100618.81;;;16.06;100.00
49377;BME280;35253;34.688;33.040;2024-02-15T10:48:24;100623.41;;;15.95;100.00
49377;BME280;35253;34.688;33.040;2024-02-15T10:50:50;100623.63;;;16.03;100.00
49377;BME280;35253;34.688;33.040;2024-02-15T10:53:21;100621.41;;;16.08;100.00
49377;BME280;35253;34.688;33.040;2024-02-15T10:56:13;100622.75;;;16.02;100.00
49377;BME280;35253;34.688;33.040;2024-02-15T10:58:49;100632.66;;;16.02;100.00
49377;BME280;35253;34.688;33.040;2024-02-15T11:01:17;100622.81;;;15.80;100.00
49377;BME280;35253;34.688;33.040;2024-02-15T11:03:57;100625.03;;;15.75;100.00
49377;BME280;35253;34.688;33.040;2024-02-15T11:06:28;100626.72;;;15.76;100.00
49377;BME280;35253;34.688;33.040;2024-02-15T11:08:55;100629.56;;;15.74;100.00
49377;BME280;35253;34.688;33.040;2024-02-15T11:11:21;100627.34;;;15.80;100.00
49377;BME280;35253;34.688;33.040;2024-02-15T11:13:48;100625.16;;;15.73;100.00
49377;BME280;35253;34.688;33.040;2024-02-15T11:16:39;100626.38;;;15.69;100.00
49377;BME280;35253;34.688;33.040;2024-02-15T11:19:05;100634.69;;;15.77;100.00
49377;BME280;35253;34.688;33.040;2024-02-15T11:21:53;100634.44;;;15.58;100.00
49377;BME280;35253;34.688;33.040;2024-02-15T11:24:29;100628.97;;;15.60;100.00
49377;BME280;35253;34.688;33.040;2024-02-15T11:27:01;100624.41;;;15.71;100.00
49377;BME280;35253;34.688;33.040;2024-02-15T11:32:41;100620.75;;;15.72;100.00
49377;BME280;35253;34.688;33.040;2024-02-15T11:35:13;100625.88;;;15.75;100.00
49377;BME280;35253;34.688;33.040;2024-02-15T11:40:25;100624.38;;;15.94;100.00
49377;BME280;35253;34.688;33.040;2024-02-15T11:42:54;100617.81;;;15.87;100.00
49377;BME280;35253;34.688;33.040;2024-02-15T11:45:20;100615.44;;;15.93;100.00
49377;BME280;35253;34.688;33.040;2024-02-15T11:47:50;100617.03;;;15.96;100.00
49377;BME280;35253;34.688;33.040;2024-02-15T11:50:17;100611.13;;;16.02;100.00
49377;BME280;35253;34.688;33.040;2024-02-15T11:52:47;100612.84;;;16.14;100.00
49377;BME280;35253;34.688;33.040;2024-02-15T11:55:22;100606.59;;;16.13;100.00
49377;BME280;35253;34.688;33.040;2024-02-15T11:58:02;100604.78;;;16.03;100.00
49377;BME280;35253;34.688;33.040;2024-02-15T12:00:30;100604.06;;;16.01;100.00
49377;BME280;35253;34.688;33.040;2024-02-15T12:03:22;100601.25;;;16.02;100.00
49377;BME280;35253;34.688;33.040;2024-02-15T12:06:07;100591.94;;;16.06;100.00
49377;BME280;35253;34.688;33.040;2024-02-15T12:08:53;100590.16;;;15.96;100.00
49377;BME280;35253;34.688;33.040;2024-02-15T12:11:37;100584.50;;;15.99;100.00
49377;BME280;35253;34.688;33.040;2024-02-15T12:14:22;100591.00;;;15.96;100.00
49377;BME280;35253;34.688;33.040;2024-02-15T12:17:08;100590.09;;;16.07;100.00
49377;BME280;35253;34.688;33.040;2024-02-15T12:19:54;100593.59;;;15.87;100.00
49377;BME280;35253;34.688;33.040;2024-02-15T12:22:42;100587.09;;;16.00;100.00
49377;BME280;35253;34.688;33.040;2024-02-15T12:25:14;100585.00;;;16.04;100.00
49377;BME280;35253;34.688;33.040;2024-02-15T12:27:41;100578.72;;;15.83;100.00
49377;BME280;35253;34.688;33.040;2024-02-15T12:30:16;100569.66;;;15.84;100.00
49377;BME280;35253;34.688;33.040;2024-02-15T12:32:48;100568.94;;;15.82;100.00
49377;BME280;35253;34.688;33.040;2024-02-15T12:35:16;100557.19;;;15.83;100.00
49377;BME280;35253;34.688;33.040;2024-02-15T12:38:02;100556.84;;;15.76;100.00
49377;BME280;35253;34.688;33.040;2024-02-15T12:40:35;100557.75;;;15.54;100.00
49377;BME280;35253;34.688;33.040;2024-02-15T12:43:02;100553.38;;;15.53;100.00